Iona Mcallister — WDD4840 — position and weather

sailwx.info

Track history (hours):
 
Tides and Currents Weather Stations Pressure Air Temp Water Temp Dewpoint Dewpoint Depression Visibility Wind Speed Wind Dir Waves Ship Positions

Iona Mcallister

Owner: McAllister Towing & Transportation Co. Inc., Staten Island, NY. More information available from US FCC via Universal Licensing System and Coast Guard Vessel Documentation Center.

Last reported at 2016-Jul-29 06:06 UTC. Time now 2016-Jul-29 07:48 UTC.
Position N 41°42' W 071°11'.

Length 36 m; draft 3 m.

Type: Towing. MMSI: 367149890.

Date/timePositionNaut miles runAvg speedWind from/ knotsBaromVisibWave heightAir tempDewpointWater temp
2016-Jul-29 06:06N 41°42' W 071°11'0 0.0
2016-Jul-29 04:24N 41°42' W 071°11'0 0.0
2016-Jul-29 03:32N 41°42' W 071°11'0 0.0
2016-Jul-29 02:30N 41°42' W 071°11'0 0.0
2016-Jul-28 11:29N 41°42' W 071°11'0 0.0
2016-Jul-28 10:33N 41°42' W 071°11'1 1.1
2016-Jul-28 09:33N 41°41' W 071°12'11 0.7
2016-Jul-27 17:32N 41°35' W 071°24'2 0.3
2016-Jul-27 11:17N 41°37' W 071°24'1 1.0
2016-Jul-27 10:32N 41°36' W 071°24'1 1.1
2016-Jul-27 09:25N 41°35' W 071°24'0 0.1
2016-Jul-27 08:27N 41°35' W 071°24'0 0.1
2016-Jul-27 07:33N 41°35' W 071°24'8 7.9
2016-Jul-27 06:33N 41°42' W 071°20'6 4.2
2016-Jul-27 05:10N 41°48' W 071°23'1 1.8
2016-Jul-27 04:29N 41°49' W 071°24'0 0.0
2016-Jul-27 03:32N 41°49' W 071°24'0 0.0
2016-Jul-27 02:32N 41°49' W 071°24'2 0.6
2016-Jul-26 22:10N 41°47' W 071°22'0 0.1
2016-Jul-26 19:31N 41°47' W 071°23'0 0.0
2016-Jul-25 22:06N 41°47' W 071°22'4 8.2
2016-Jul-25 21:34N 41°43' W 071°20'7 0.6
2016-Jul-25 10:25N 41°36' W 071°24'0 0.1
2016-Jul-25 09:33N 41°36' W 071°24'1 0.1
2016-Jul-25 00:23N 41°35' W 071°24'5 6.4
2016-Jul-24 23:34N 41°40' W 071°22'7 1.2
2016-Jul-24 17:33N 41°47' W 071°23'1 0.1
2016-Jul-24 03:26N 41°48' W 071°24'2 0.2
2016-Jul-23 17:33N 41°46' W 071°22'10 3.0
2016-Jul-23 14:17N 41°42' W 071°11'3 3.5
2016-Jul-23 13:33N 41°40' W 071°13'3 3.1
2016-Jul-23 12:31N 41°38' W 071°16'7 7.4
2016-Jul-23 11:34N 41°44' W 071°22'4 4.3
2016-Jul-23 10:33N 41°48' W 071°23'0 0.0
2016-Jul-23 09:33N 41°48' W 071°23'0 0.0
2016-Jul-23 08:33N 41°48' W 071°23'0 0.0
2016-Jul-23 07:33N 41°48' W 071°23'0 0.0
2016-Jul-23 06:33N 41°48' W 071°23'1 0.1
2016-Jul-22 15:11N 41°47' W 071°22'0 0.1
2016-Jul-22 14:33N 41°47' W 071°22'6 1.3
2016-Jul-22 09:33N 41°41' W 071°19'2 0.1
2016-Jul-21 16:33N 41°43' W 071°20'7 1.1
2016-Jul-21 10:11N 41°37' W 071°24'1 2.1
2016-Jul-21 09:32N 41°37' W 071°23'8 8.0
2016-Jul-21 08:33N 41°45' W 071°22'3 2.9
2016-Jul-21 07:30N 41°48' W 071°23'1 0.2
2016-Jul-21 03:11N 41°49' W 071°24'1 0.3
2016-Jul-21 00:27N 41°48' W 071°24'0 0.0
2016-Jul-20 16:20N 41°48' W 071°24'1 0.7
2016-Jul-20 15:24N 41°48' W 071°23'1 1.7
2016-Jul-20 14:32N 41°49' W 071°24'0 0.0
2016-Jul-20 08:05N 41°49' W 071°24'4 0.4
2016-Jul-19 23:33N 41°45' W 071°22'9 7.4
2016-Jul-19 22:22N 41°37' W 071°24'1 0.1
2016-Jul-19 09:33N 41°36' W 071°24'  
Track history (hours):
 
Tides and Currents Weather Stations Pressure Air Temp Water Temp Dewpoint Dewpoint Depression Visibility Wind Speed Wind Dir Waves Ship Positions

Iona Mcallister

Owner: McAllister Towing & Transportation Co. Inc., Staten Island, NY. More information available from US FCC via Universal Licensing System and Coast Guard Vessel Documentation Center.

Last reported at 2016-Jul-29 06:06 UTC. Time now 2016-Jul-29 07:48 UTC.
Position N 41°42' W 071°11'.

Length 36 m; draft 3 m.

Type: Towing. MMSI: 367149890.

Date/timePositionNaut miles runAvg speedWind from/ knotsBaromVisibWave heightAir tempDewpointWater temp
2016-Jul-29 06:06N 41°42' W 071°11'0 0.0
2016-Jul-29 04:24N 41°42' W 071°11'0 0.0
2016-Jul-29 03:32N 41°42' W 071°11'0 0.0
2016-Jul-29 02:30N 41°42' W 071°11'0 0.0
2016-Jul-28 11:29N 41°42' W 071°11'0 0.0
2016-Jul-28 10:33N 41°42' W 071°11'1 1.1
2016-Jul-28 09:33N 41°41' W 071°12'11 0.7
2016-Jul-27 17:32N 41°35' W 071°24'2 0.3
2016-Jul-27 11:17N 41°37' W 071°24'1 1.0
2016-Jul-27 10:32N 41°36' W 071°24'1 1.1
2016-Jul-27 09:25N 41°35' W 071°24'0 0.1
2016-Jul-27 08:27N 41°35' W 071°24'0 0.1
2016-Jul-27 07:33N 41°35' W 071°24'8 7.9
2016-Jul-27 06:33N 41°42' W 071°20'6 4.2
2016-Jul-27 05:10N 41°48' W 071°23'1 1.8
2016-Jul-27 04:29N 41°49' W 071°24'0 0.0
2016-Jul-27 03:32N 41°49' W 071°24'0 0.0
2016-Jul-27 02:32N 41°49' W 071°24'2 0.6
2016-Jul-26 22:10N 41°47' W 071°22'0 0.1
2016-Jul-26 19:31N 41°47' W 071°23'0 0.0
2016-Jul-25 22:06N 41°47' W 071°22'4 8.2
2016-Jul-25 21:34N 41°43' W 071°20'7 0.6
2016-Jul-25 10:25N 41°36' W 071°24'0 0.1
2016-Jul-25 09:33N 41°36' W 071°24'1 0.1
2016-Jul-25 00:23N 41°35' W 071°24'5 6.4
2016-Jul-24 23:34N 41°40' W 071°22'7 1.2
2016-Jul-24 17:33N 41°47' W 071°23'1 0.1
2016-Jul-24 03:26N 41°48' W 071°24'2 0.2
2016-Jul-23 17:33N 41°46' W 071°22'10 3.0
2016-Jul-23 14:17N 41°42' W 071°11'3 3.5
2016-Jul-23 13:33N 41°40' W 071°13'3 3.1
2016-Jul-23 12:31N 41°38' W 071°16'7 7.4
2016-Jul-23 11:34N 41°44' W 071°22'4 4.3
2016-Jul-23 10:33N 41°48' W 071°23'0 0.0
2016-Jul-23 09:33N 41°48' W 071°23'0 0.0
2016-Jul-23 08:33N 41°48' W 071°23'0 0.0
2016-Jul-23 07:33N 41°48' W 071°23'0 0.0
2016-Jul-23 06:33N 41°48' W 071°23'1 0.1
2016-Jul-22 15:11N 41°47' W 071°22'0 0.1
2016-Jul-22 14:33N 41°47' W 071°22'6 1.3
2016-Jul-22 09:33N 41°41' W 071°19'2 0.1
2016-Jul-21 16:33N 41°43' W 071°20'7 1.1
2016-Jul-21 10:11N 41°37' W 071°24'1 2.1
2016-Jul-21 09:32N 41°37' W 071°23'8 8.0
2016-Jul-21 08:33N 41°45' W 071°22'3 2.9
2016-Jul-21 07:30N 41°48' W 071°23'1 0.2
2016-Jul-21 03:11N 41°49' W 071°24'1 0.3
2016-Jul-21 00:27N 41°48' W 071°24'0 0.0
2016-Jul-20 16:20N 41°48' W 071°24'1 0.7
2016-Jul-20 15:24N 41°48' W 071°23'1 1.7
2016-Jul-20 14:32N 41°49' W 071°24'0 0.0
2016-Jul-20 08:05N 41°49' W 071°24'4 0.4
2016-Jul-19 23:33N 41°45' W 071°22'9 7.4
2016-Jul-19 22:22N 41°37' W 071°24'1 0.1
2016-Jul-19 09:33N 41°36' W 071°24'  

Dump ship's entire track history